Latest Weather Observations for Braidwood

IDN60801

Issued at 6:23 pm EST Saturday 9 May 2026 (issued every 10 minutes, with the page automatically refreshed every 10 minutes)

About weather observations | Map of weather stations | Latest weather observations for NSW | Other Formats
Station Details ID: 069132 Name: BRAIDWOOD RACECOURSE AWS Lat: -35.43 Lon: 149.78 Height: 665.2 m
Data from the previous 72 hours. | See also: Recent months at Braidwood
Date/Time
EST
Temp
°C
App
Temp
°C
Dew
Point
°C
Rel
Hum
%
Delta-T
°C
Wind Press
QNH
hPa
Press
MSL
hPa
Rain since
9am
mm
Dir  Spd
km/h
Gust
km/h
Spd
kts
Gust
kts
09/06:00pm 9.0 8.2 6.4 84 1.2 CALM 0 0 0 0 1025.7 1025.8 0.0
09/05:30pm 10.6 9.3 7.7 82 1.5 SE 4 6 2 3 1025.4 1025.5 0.0
09/05:00pm 12.8 10.7 8.1 73 2.4 ESE 9 11 5 6 1024.8 1025.0 0.0
09/04:30pm 15.0 12.9 8.3 64 3.5 ESE 9 15 5 8 1024.5 1024.6 0.0
09/04:00pm 18.2 17.2 5.8 44 6.3 CALM 0 0 0 0 1024.4 1024.5 0.0
09/03:30pm 17.8 16.8 5.4 44 6.2 CALM 0 0 0 0 1024.3 1024.4 0.0
09/03:00pm 17.5 16.6 6.1 47 5.8 CALM 0 0 0 0 1024.1 1024.2 0.0
09/02:30pm 17.1 16.3 6.3 49 5.5 CALM 0 0 0 0 1024.2 1024.3 0.0
09/02:00pm 16.3 14.7 6.2 51 5.1 SE 4 7 2 4 1024.1 1024.2 0.0
09/01:30pm 17.2 16.1 6.7 50 5.4 N 2 6 1 3 1024.3 1024.4 0.0
09/01:00pm 15.9 14.9 5.8 51 5.0 CALM 0 0 0 0 1024.4 1024.5 0.0
09/12:30pm 15.7 13.9 5.3 50 5.1 SSW 4 9 2 5 1024.8 1025.0 0.0
09/12:00pm 15.1 13.2 4.8 50 5.0 WSW 4 7 2 4 1025.4 1025.5 0.0
09/11:30am 14.5 12.2 4.8 52 4.7 WNW 6 7 3 4 1025.7 1025.8 0.0
09/11:00am 13.7 12.2 5.1 56 4.1 NW 2 6 1 3 1025.7 1025.8 0.0
09/10:30am 13.5 12.3 4.6 55 4.3 CALM 0 6 0 3 1025.9 1026.0 0.0
09/10:00am 13.5 12.2 6.1 61 3.6 WNW 2 4 1 2 1026.0 1026.2 0.0
09/09:30am 11.7 10.3 5.6 66 2.9 W 2 6 1 3 1026.0 1026.2 0.0
09/09:00am 10.4 9.4 5.6 72 2.3 CALM 0 0 0 0 1025.9 1026.0 0.0
09/08:30am 9.1 7.4 5.8 80 1.6 SE 4 6 2 3 1025.7 1025.8 0.0
09/08:00am 7.3 6.6 7.0 98 0.1 CALM 0 0 0 0 1025.2 1025.4 0.0
09/07:30am 3.7 1.9 3.3 97 0.2 N 2 6 1 3 1025.1 1025.3 0.0
09/07:00am 2.2 0.1 1.6 96 0.2 NW 2 6 1 3 1024.8 1025.0 0.0
09/06:30am 2.6 0.2 1.9 95 0.3 S 4 7 2 4 1024.5 1024.6 0.0
09/06:00am 3.0 0.5 1.8 92 0.5 NNE 4 9 2 5 1024.2 1024.3 0.0
09/05:30am 3.3 1.5 1.5 88 0.7 CALM 0 4 0 2 1023.8 1023.9 0.0
09/05:00am 4.5 2.9 2.5 87 0.8 CALM 0 0 0 0 1023.5 1023.7 0.0
09/04:30am 5.0 2.7 2.5 84 1.1 SSW 4 4 2 2 1023.4 1023.6 0.0
09/04:00am 6.4 4.7 1.9 73 1.9 CALM 0 2 0 1 1023.3 1023.4 0.0
09/03:30am 9.5 7.0 4.5 71 2.3 SW 7 11 4 6 1023.3 1023.4 0.0
09/03:00am 9.7 7.2 4.7 71 2.3 SW 7 9 4 5 1023.4 1023.6 0.0
09/02:30am 10.2 8.0 5.2 71 2.4 SW 6 9 3 5 1023.2 1023.3 0.0
09/02:00am 9.8 7.7 5.6 75 2.0 WSW 6 11 3 6 1023.3 1023.4 0.0
09/01:30am 9.5 7.4 5.9 78 1.7 W 6 7 3 4 1023.1 1023.2 0.0
09/01:00am 9.5 7.4 5.7 77 1.8 WNW 6 7 3 4 1023.2 1023.3 0.0
09/12:30am 9.3 7.6 5.7 78 1.7 WNW 4 6 2 3 1023.0 1023.1 0.0
09/12:00am 9.4 8.0 5.4 76 1.9 E 2 6 1 3 1022.8 1022.9 0.0
 
Date/Time
EST
Temp
°C
App
Temp
°C
Dew
Point
°C
Rel
Hum
%
Delta-T
°C
Wind Press
QNH
hPa
Press
MSL
hPa
Rain since
9am
mm
Dir  Spd
km/h
Gust
km/h
Spd
kts
Gust
kts
08/11:30pm 9.8 7.1 5.4 74 2.1 W 9 13 5 7 1022.7 1022.8 0.0
08/11:00pm 10.0 6.9 5.4 73 2.2 W 11 13 6 7 1022.6 1022.7 0.0
08/10:30pm 9.8 7.1 5.4 74 2.1 WNW 9 13 5 7 1022.7 1022.8 0.0
08/10:00pm 9.8 6.7 5.4 74 2.1 WNW 11 13 6 7 1022.6 1022.7 0.0
08/09:30pm 10.0 7.3 5.4 73 2.2 W 9 11 5 6 1022.4 1022.5 0.0
08/09:00pm 10.2 7.1 5.4 72 2.3 W 11 15 6 8 1022.3 1022.4 0.0
08/08:30pm 10.3 6.8 5.5 72 2.3 WNW 13 15 7 8 1022.2 1022.3 0.0
08/08:00pm 10.4 6.5 5.4 71 2.4 W 15 20 8 11 1021.8 1021.9 0.0
08/07:30pm 10.3 5.7 5.5 72 2.3 WNW 19 22 10 12 1021.3 1021.4 0.0
08/07:00pm 10.1 7.4 5.5 73 2.2 NW 9 13 5 7 1021.0 1021.1 0.0
08/06:30pm 9.6 7.5 6.0 78 1.7 NNW 6 15 3 8 1020.3 1020.4 0.0
08/06:00pm 9.9 7.6 5.7 75 2.0 NNW 7 13 4 7 1019.7 1019.8 0.0
08/05:30pm 10.6 9.0 6.2 74 2.1 NNW 4 6 2 3 1019.2 1019.2 0.0
08/05:00pm 11.2 8.1 5.7 69 2.6 NW 11 19 6 10 1018.7 1018.8 0.0
08/04:30pm 13.0 9.2 5.9 62 3.5 NW 15 22 8 12 1018.1 1018.1 0.0
08/04:00pm 14.6 11.9 5.7 55 4.4 WNW 9 22 5 12 1017.9 1017.9 0.0
08/03:30pm 15.2 10.3 5.1 51 4.9 WSW 20 37 11 20 1017.5 1017.5 0.0
08/03:00pm 15.3 10.5 5.8 53 4.7 WNW 20 28 11 15 1017.0 1017.1 0.0
08/02:30pm 15.2 10.4 5.7 53 4.7 WNW 20 32 11 17 1016.7 1016.7 0.0
08/02:00pm 15.4 9.6 4.5 48 5.3 WNW 24 37 13 20 1016.4 1016.4 0.0
08/01:30pm 14.9 9.2 4.9 51 4.9 WNW 24 32 13 17 1016.5 1016.5 0.0
08/01:00pm 14.5 8.7 4.5 51 4.8 WNW 24 32 13 17 1016.5 1016.5 0.0
08/12:30pm 13.9 7.5 5.3 56 4.2 WNW 28 39 15 21 1016.6 1016.6 0.0
08/12:00pm 13.6 8.0 5.3 57 4.0 WNW 24 32 13 17 1017.1 1017.2 0.0
08/11:30am 13.3 7.6 5.0 57 4.0 WNW 24 37 13 20 1017.2 1017.3 0.0
08/11:00am 11.7 4.8 4.7 62 3.3 WNW 30 43 16 23 1017.5 1017.5 0.0
08/10:30am 10.8 3.9 4.5 65 2.9 WNW 30 46 16 25 1017.7 1017.7 0.0
08/10:21am 10.4 3.9 4.5 67 2.7 WNW 28 46 15 25 1017.7 1017.7 0.0
08/10:00am 9.8 4.1 4.8 71 2.3 NW 24 37 13 20 1017.9 1017.9 0.0
08/09:40am 9.0 1.5 4.2 72 2.2 WNW 33 52 18 28 1017.8 1017.8 0.0
08/09:30am 8.6 0.0 4.4 75 1.9 WNW 39 52 21 28 1017.6 1017.6 0.0
08/09:00am 8.1 -1.0 4.1 76 1.8 WNW 41 52 22 28 1017.7 1017.7 0.0
08/08:30am 7.4 0.1 4.4 81 1.4 WNW 32 44 17 24 1017.7 1017.7 0.0
08/08:00am 6.3 -0.8 3.6 83 1.2 WNW 30 43 16 23 1017.5 1017.5 0.0
08/07:30am 5.6 -0.4 3.4 86 1.0 WNW 24 37 13 20 1017.5 1017.5 0.0
08/07:22am 5.3 -1.5 3.2 86 0.9 WNW 28 48 15 26 1017.4 1017.4 0.0
08/07:15am 5.2 -2.0 3.2 87 0.9 WNW 30 48 16 26 1017.0 1017.1 0.0
08/07:00am 4.7 -0.4 3.0 89 0.7 NW 19 28 10 15 1017.0 1017.1 0.0
08/06:30am 4.6 -1.1 2.6 87 0.8 NW 22 33 12 18 1016.7 1016.7 0.0
08/06:00am 4.9 -1.3 2.1 82 1.2 WNW 24 32 13 17 1016.6 1016.6 0.0
08/05:30am 4.8 0.7 2.2 83 1.1 NW 13 33 7 18 1016.7 1016.7 0.0
08/05:00am 3.9 1.0 1.4 84 1.0 NNW 6 15 3 8 1017.0 1017.1 0.0
08/04:30am 3.1 0.8 0.2 81 1.1 NNE 2 9 1 5 1017.1 1017.2 0.0
08/04:00am 3.0 -0.1 0.2 82 1.1 NNE 6 11 3 6 1016.6 1016.6 0.0
08/03:30am 3.0 0.7 0.2 82 1.1 NNW 2 6 1 3 1016.9 1016.9 0.0
08/03:00am 3.2 0.0 -0.4 77 1.4 NW 6 13 3 7 1017.2 1017.3 0.0
08/02:30am 1.3 -1.9 -0.8 86 0.8 NNW 6 13 3 7 1016.8 1016.8 0.0
08/02:00am 2.9 0.1 -0.2 80 1.2 NNE 4 7 2 4 1017.2 1017.3 0.0
08/01:30am 2.9 -0.6 -1.1 75 1.5 NW 7 13 4 7 1017.9 1017.9 0.0
08/01:00am 2.7 -0.1 -0.6 79 1.3 NNW 4 9 2 5 1017.9 1017.9 0.0
08/12:30am 3.5 0.6 -0.9 73 1.7 NNE 4 9 2 5 1018.0 1018.0 0.0
08/12:00am 2.8 -0.5 -1.5 73 1.6 NW 6 13 3 7 1018.1 1018.1 0.0
 
Date/Time
EST
Temp
°C
App
Temp
°C
Dew
Point
°C
Rel
Hum
%
Delta-T
°C
Wind Press
QNH
hPa
Press
MSL
hPa
Rain since
9am
mm
Dir  Spd
km/h
Gust
km/h
Spd
kts
Gust
kts
07/11:30pm 3.5 -0.3 -0.7 74 1.6 NW 9 19 5 10 1018.2 1018.2 0.0
07/11:00pm 3.0 -1.6 -1.0 75 1.5 WNW 13 19 7 10 1018.6 1018.7 0.0
07/10:30pm 2.0 -1.8 -0.9 81 1.1 WNW 9 15 5 8 1018.8 1018.9 0.0
07/10:00pm 2.3 -1.1 -0.8 80 1.2 NE 7 13 4 7 1019.3 1019.3 0.0
07/09:30pm 2.6 -0.3 -0.8 78 1.3 NNW 4 6 2 3 1019.3 1019.3 0.0
07/09:00pm 2.9 0.4 -1.3 74 1.6 N 2 6 1 3 1019.0 1019.0 0.0
07/08:30pm 4.6 0.3 -1.4 65 2.3 NW 11 20 6 11 1018.7 1018.8 0.0
07/08:00pm 5.5 -0.8 -1.0 63 2.5 WNW 22 30 12 16 1018.4 1018.5 0.0
07/07:30pm 5.8 -0.1 -1.1 61 2.7 W 20 28 11 15 1018.3 1018.4 0.0
07/07:00pm 6.0 0.2 -1.4 59 2.9 WNW 19 28 10 15 1018.1 1018.1 0.0
07/06:30pm 6.6 0.5 -2.0 54 3.3 WNW 20 28 11 15 1017.9 1017.9 0.0
07/06:00pm 6.4 2.1 -1.7 56 3.1 WNW 11 17 6 9 1017.5 1017.5 0.0
07/05:30pm 7.2 1.1 -2.2 51 3.6 WNW 20 28 11 15 1017.0 1017.1 0.0
07/05:00pm 8.7 2.3 -4.5 39 4.9 WSW 20 28 11 15 1016.3 1016.3 0.0
07/04:30pm 9.4 4.6 -2.8 42 4.8 WSW 13 26 7 14 1016.1 1016.1 0.0
07/04:00pm 9.2 4.0 -2.7 43 4.6 WSW 15 22 8 12 1016.0 1016.0 0.0
07/03:30pm 9.6 3.0 -3.7 39 5.1 WSW 22 33 12 18 1015.5 1015.5 0.0
07/03:00pm 10.0 3.9 -4.0 37 5.3 WSW 19 32 10 17 1015.2 1015.2 0.0
07/02:30pm 9.5 3.3 -4.8 36 5.3 SW 19 35 10 19 1015.0 1015.0 0.0
07/02:00pm 10.0 3.7 -3.6 38 5.2 SW 20 39 11 21 1014.8 1014.8 0.0
07/01:30pm 9.3 2.6 -3.9 39 5.0 WSW 22 35 12 19 1014.7 1014.7 0.0
07/01:00pm 9.9 4.5 -1.5 45 4.6 SW 17 28 9 15 1014.7 1014.7 0.0
07/12:30pm 9.0 2.7 -3.9 40 4.9 SW 20 35 11 19 1014.6 1014.6 0.0
07/12:00pm 8.8 2.5 -3.7 41 4.7 WSW 20 33 11 18 1014.7 1014.7 0.0
07/11:30am 9.1 3.0 -2.5 44 4.5 WSW 20 37 11 20 1015.0 1015.0 0.0
07/11:00am 8.5 1.7 -1.9 48 4.1 WSW 24 39 13 21 1014.9 1014.9 0.0
07/10:30am 8.0 1.3 -1.2 52 3.7 SW 24 37 13 20 1015.1 1015.1 0.0
07/10:00am 7.6 0.6 -0.6 56 3.3 SSW 26 37 14 20 1014.8 1014.8 0.0
07/09:30am 7.1 0.6 0.3 62 2.8 SSW 24 32 13 17 1014.4 1014.4 0.0
07/09:00am 7.6 2.0 1.0 63 2.8 SW 20 33 11 18 1014.2 1014.1 0.0
07/08:30am 9.1 2.0 1.5 59 3.3 WNW 28 39 15 21 1013.3 1013.3 0.0
07/08:00am 8.9 3.9 1.6 60 3.1 W 17 28 9 15 1012.9 1012.8 0.0
07/07:30am 8.8 4.3 4.2 73 2.1 WNW 17 28 9 15 1012.8 1012.7 0.0
07/07:00am 8.5 5.0 5.3 80 1.5 NW 13 24 7 13 1012.0 1012.0 0.0
07/06:30am 8.1 5.4 5.7 85 1.1 NW 9 17 5 9 1011.7 1011.6 0.0
07/06:00am 7.6 4.5 5.4 86 1.0 NW 11 22 6 12 1011.6 1011.5 0.0
07/05:30am 8.0 5.4 6.0 87 0.9 NNW 9 15 5 8 1012.2 1012.2 0.0
07/05:00am 7.9 5.5 5.4 84 1.2 NNW 7 13 4 7 1012.7 1012.6 0.0
07/04:30am 6.8 4.0 5.0 88 0.8 NW 9 17 5 9 1013.0 1012.9 0.0
07/04:00am 6.5 1.5 3.7 82 1.2 WNW 19 26 10 14 1013.2 1013.2 0.0
07/03:30am 6.5 1.5 3.5 81 1.3 NW 19 30 10 16 1013.3 1013.3 0.0
07/03:00am 6.5 3.0 3.5 81 1.3 NW 11 17 6 9 1013.5 1013.5 0.0
07/02:30am 6.8 2.1 3.4 79 1.5 WNW 17 22 9 12 1013.7 1013.7 0.0
07/02:00am 7.2 2.0 3.8 79 1.5 WNW 20 35 11 19 1013.8 1013.8 0.0
07/01:30am 7.0 4.4 4.3 83 1.2 NW 7 22 4 12 1014.0 1014.0 0.0
07/01:00am 6.7 4.3 4.5 86 1.0 NNE 6 11 3 6 1014.5 1014.5 0.0
07/12:30am 7.1 4.8 4.9 86 1.0 NNE 6 17 3 9 1014.9 1014.9 0.0
07/12:00am 6.9 5.8 4.9 87 0.9 CALM 0 0 0 0 1015.1 1015.1 0.0
 
Date/Time
EST
Temp
°C
App
Temp
°C
Dew
Point
°C
Rel
Hum
%
Delta-T
°C
Wind Press
QNH
hPa
Press
MSL
hPa
Rain since
9am
mm
Dir  Spd
km/h
Gust
km/h
Spd
kts
Gust
kts
06/11:30pm 6.9 5.0 4.7 86 1.0 NNE 4 7 2 4 1015.3 1015.3 0.0
06/11:00pm 8.3 6.2 5.9 85 1.1 NNE 6 19 3 10 1015.4 1015.4 0.0
06/10:30pm 7.9 5.8 5.9 87 0.9 NNW 6 11 3 6 1015.5 1015.5 0.0
06/10:00pm 7.8 5.9 6.6 92 0.6 NNW 6 11 3 6 1015.9 1015.9 0.0
06/09:30pm 7.7 5.8 6.5 92 0.6 NNW 6 13 3 7 1016.2 1016.2 0.0
06/09:00pm 7.6 5.5 6.7 94 0.4 NNW 7 15 4 8 1016.4 1016.4 0.0
06/08:30pm 7.4 5.8 6.2 92 0.6 N 4 7 2 4 1016.6 1016.6 0.0
06/08:00pm 7.9 6.2 5.7 86 1.0 NNW 4 9 2 5 1016.8 1016.8 0.0
06/07:30pm 8.5 6.1 4.3 75 1.9 NW 6 9 3 5 1016.7 1016.7 0.0
06/07:00pm 9.9 5.5 2.5 60 3.3 NW 15 24 8 13 1016.8 1016.8 0.0
06/06:30pm 10.9 6.5 2.7 57 3.7 NW 15 26 8 14 1016.8 1016.8 0.0

Other formats

Comma delimited format used in spreadsheet applications
http://www.bom.gov.au/fwo/IDN60801/IDN60801.94927.axf

JavaScript Object Notation format (JSON) in row-major order
http://www.bom.gov.au/fwo/IDN60801/IDN60801.94927.json

Data quality

Most of these data are generated automatically and are frequently updated. Quality checks on data are not normally performed. It is possible for incorrect values to appear. Refer to information at About Latest Weather Observations and please check the disclaimer before using these data.